Time;durP1;ratioP1;P1;durP2;ratioP2;P2;SDS_P1;SDS_P2;PMS_P1;PMS_P2;Temp;Humidity;BMP_temperature;BMP_pressure;BME280_temperature;BME280_humidity;BME280_pressure;Samples;Min_cycle;Max_cycle;Signal;HPM_P1;HPM_P2
2022/09/20 00:01:03;;;;;;;0.20;0.10;;;;;;;;;;4949427;28;20130;-87
2022/09/20 00:03:29;;;;;;;0.20;0.10;;;;;;;;;;4954363;28;20042;-87
2022/09/20 00:05:55;;;;;;;0.20;0.10;;;;;;;;;;4969711;28;20034;-87
2022/09/20 00:08:21;;;;;;;0.20;0.10;;;;;;;;;;4970414;28;20072;-87
2022/09/20 00:10:47;;;;;;;0.20;0.10;;;;;;;;;;4970128;28;20093;-87
2022/09/20 00:13:13;;;;;;;0.20;0.10;;;;;;;;;;4967889;28;20034;-87
2022/09/20 00:15:40;;;;;;;0.20;0.10;;;;;;;;;;4965929;28;20053;-87
2022/09/20 00:18:10;;;;;;;0.20;0.10;;;;;;;;;;4974130;28;20057;-87
2022/09/20 00:20:46;;;;;;;0.20;0.15;;;;;;;;;;4985946;28;20034;-88
2022/09/20 00:23:12;;;;;;;0.20;0.10;;;;;;;;;;4951954;28;20088;-87
2022/09/20 00:25:41;;;;;;;0.20;0.10;;;;;;;;;;4964734;28;20038;-87
2022/09/20 00:28:07;;;;;;;0.20;0.10;;;;;;;;;;4964810;28;20128;-87
2022/09/20 00:30:34;;;;;;;0.20;0.10;;;;;;;;;;4928346;28;20081;-88
2022/09/20 00:33:00;;;;;;;0.20;0.10;;;;;;;;;;4971048;28;20049;-88
2022/09/20 00:35:28;;;;;;;0.20;0.10;;;;;;;;;;4949963;28;20050;-87
2022/09/20 00:37:54;;;;;;;0.20;0.10;;;;;;;;;;4965746;28;20057;-87
2022/09/20 00:40:21;;;;;;;0.20;0.10;;;;;;;;;;4969428;28;20046;-87
2022/09/20 00:42:47;;;;;;;0.20;0.10;;;;;;;;;;4948000;28;20493;-87
2022/09/20 00:45:27;;;;;;;0.20;0.10;;;;;;;;;;4952985;28;20581;-87
2022/09/20 00:48:12;;;;;;;0.20;0.10;;;;;;;;;;4968090;28;20489;-88
2022/09/20 00:50:46;;;;;;;0.20;0.10;;;;;;;;;;4947650;28;20663;-88
2022/09/20 00:53:16;;;;;;;0.20;0.10;;;;;;;;;;4964402;28;20089;-87
2022/09/20 00:55:53;;;;;;;0.20;0.10;;;;;;;;;;4965756;28;20527;-88
2022/09/20 00:58:19;;;;;;;0.20;0.10;;;;;;;;;;4951191;28;20037;-87
2022/09/20 01:00:46;;;;;;;0.25;0.17;;;;;;;;;;4950428;28;20046;-87
2022/09/20 01:03:14;;;;;;;0.20;0.10;;;;;;;;;;4948088;28;20133;-87
2022/09/20 01:05:40;;;;;;;0.20;0.10;;;;;;;;;;4952060;28;20042;-87
2022/09/20 01:08:06;;;;;;;0.20;0.10;;;;;;;;;;4965236;28;20047;-87
2022/09/20 01:10:32;;;;;;;0.20;0.10;;;;;;;;;;4967909;28;20042;-87
2022/09/20 01:12:59;;;;;;;0.20;0.10;;;;;;;;;;4949961;28;20074;-86
2022/09/20 01:15:26;;;;;;;0.20;0.10;;;;;;;;;;4975261;28;20547;-88
2022/09/20 01:17:54;;;;;;;0.20;0.10;;;;;;;;;;4956558;28;20049;-87
2022/09/20 01:20:25;;;;;;;0.20;0.10;;;;;;;;;;4966668;28;20049;-87
2022/09/20 01:22:52;;;;;;;0.20;0.10;;;;;;;;;;4959721;28;20034;-88
2022/09/20 01:25:25;;;;;;;0.20;0.10;;;;;;;;;;4973239;28;21222;-87
2022/09/20 01:27:51;;;;;;;;;;;;;;;;;;4955689;28;20034;-87
2022/09/20 01:30:21;;;;;;;0.20;0.10;;;;;;;;;;4963283;28;20419;-87
2022/09/20 01:32:47;;;;;;;0.20;0.10;;;;;;;;;;4947625;28;20069;-87
2022/09/20 01:35:14;;;;;;;0.20;0.10;;;;;;;;;;4972240;28;20452;-87
2022/09/20 01:37:59;;;;;;;0.20;0.10;;;;;;;;;;4967888;28;20058;-87
2022/09/20 01:40:31;;;;;;;0.20;0.10;;;;;;;;;;4979498;28;20420;-87
2022/09/20 01:43:16;;;;;;;0.20;0.10;;;;;;;;;;4966091;28;20046;-87
2022/09/20 01:45:46;;;;;;;0.20;0.10;;;;;;;;;;4951409;28;20073;-88
2022/09/20 01:48:27;;;;;;;0.20;0.10;;;;;;;;;;4952332;28;20034;-87
2022/09/20 01:50:53;;;;;;;0.20;0.10;;;;;;;;;;4947389;28;20104;-87
2022/09/20 01:53:22;;;;;;;0.20;0.10;;;;;;;;;;4968199;28;20088;-87
2022/09/20 01:56:07;;;;;;;0.20;0.10;;;;;;;;;;4972012;28;20509;-88
2022/09/20 01:58:33;;;;;;;0.20;0.10;;;;;;;;;;4978383;28;20196;-87
2022/09/20 02:01:18;;;;;;;0.20;0.10;;;;;;;;;;4972922;28;20076;-87
2022/09/20 02:04:05;;;;;;;0.20;0.10;;;;;;;;;;4960391;28;20054;-87
2022/09/20 02:06:34;;;;;;;0.20;0.10;;;;;;;;;;4989409;28;20038;-87
2022/09/20 02:09:03;;;;;;;0.20;0.10;;;;;;;;;;4973890;28;20034;-86
2022/09/20 02:11:37;;;;;;;0.20;0.10;;;;;;;;;;4971680;28;20559;-85
2022/09/20 02:14:07;;;;;;;0.20;0.10;;;;;;;;;;4976297;28;20062;-87
2022/09/20 02:16:43;;;;;;;0.20;0.10;;;;;;;;;;4972822;28;20129;-86
2022/09/20 02:19:25;;;;;;;0.20;0.10;;;;;;;;;;4970272;28;20038;-87
2022/09/20 02:22:03;;;;;;;0.20;0.10;;;;;;;;;;4972805;28;20050;-86
2022/09/20 02:24:29;;;;;;;0.20;0.10;;;;;;;;;;4956098;28;20042;-85
2022/09/20 02:27:12;;;;;;;0.20;0.10;;;;;;;;;;4966939;28;20042;-86
2022/09/20 02:29:50;;;;;;;0.20;0.10;;;;;;;;;;4986833;28;20035;-87
2022/09/20 02:32:19;;;;;;;0.20;0.10;;;;;;;;;;4954856;28;20635;-86
2022/09/20 02:34:57;;;;;;;0.20;0.00;;;;;;;;;;4971679;28;20552;-86
2022/09/20 02:37:30;;;;;;;0.20;0.10;;;;;;;;;;4969601;28;20637;-87
2022/09/20 02:39:56;;;;;;;0.20;0.00;;;;;;;;;;4990800;28;20038;-88
2022/09/20 02:42:31;;;;;;;0.20;0.10;;;;;;;;;;4959732;28;20042;-87
2022/09/20 02:45:06;;;;;;;0.20;0.10;;;;;;;;;;4960751;28;20113;-87
2022/09/20 02:47:37;;;;;;;0.20;0.10;;;;;;;;;;4978562;28;20488;-87
2022/09/20 02:50:18;;;;;;;0.20;0.10;;;;;;;;;;4961813;28;20096;-87
2022/09/20 02:53:03;;;;;;;0.20;0.10;;;;;;;;;;4960432;28;20049;-87
2022/09/20 02:55:48;;;;;;;0.20;0.10;;;;;;;;;;4960546;28;20089;-88
2022/09/20 02:58:14;;;;;;;0.20;0.10;;;;;;;;;;4977643;28;20128;-87
2022/09/20 03:00:46;;;;;;;0.20;0.00;;;;;;;;;;4974888;28;20129;-87
2022/09/20 03:03:23;;;;;;;0.20;0.10;;;;;;;;;;4993508;28;20138;-87
2022/09/20 03:05:53;;;;;;;0.20;0.10;;;;;;;;;;4990022;28;20560;-88
2022/09/20 03:08:22;;;;;;;0.20;0.10;;;;;;;;;;4984980;28;20523;-87
2022/09/20 03:10:48;;;;;;;0.20;0.10;;;;;;;;;;4969312;28;20034;-87
2022/09/20 03:13:21;;;;;;;0.20;0.10;;;;;;;;;;4961059;28;20046;-87
2022/09/20 03:16:06;;;;;;;0.20;0.10;;;;;;;;;;4977953;28;20096;-87
2022/09/20 03:18:35;;;;;;;0.20;0.10;;;;;;;;;;4960109;28;20135;-86
2022/09/20 03:21:11;;;;;;;0.20;0.10;;;;;;;;;;4987434;28;20046;-87
2022/09/20 03:23:52;;;;;;;0.20;0.10;;;;;;;;;;4977333;28;20038;-87
2022/09/20 03:26:26;;;;;;;0.20;0.10;;;;;;;;;;4975602;28;20456;-86
2022/09/20 03:29:02;;;;;;;0.20;0.10;;;;;;;;;;4978353;28;20392;-87
2022/09/20 03:31:29;;;;;;;0.20;0.10;;;;;;;;;;4971892;28;20077;-87
2022/09/20 03:34:16;;;;;;;0.20;0.10;;;;;;;;;;4958295;28;20034;-88
2022/09/20 03:37:01;;;;;;;0.20;0.10;;;;;;;;;;4980153;28;20512;-88
2022/09/20 03:39:47;;;;;;;0.20;0.10;;;;;;;;;;4958205;28;20076;-87
2022/09/20 03:42:22;;;;;;;0.20;0.10;;;;;;;;;;4970564;28;20038;-88
2022/09/20 03:44:54;;;;;;;0.20;0.10;;;;;;;;;;4953314;28;20053;-86
2022/09/20 03:47:39;;;;;;;0.20;0.10;;;;;;;;;;4991187;28;20050;-87
2022/09/20 03:50:11;;;;;;;0.20;0.00;;;;;;;;;;4972975;28;20077;-87
2022/09/20 03:52:50;;;;;;;0.20;0.10;;;;;;;;;;4972718;28;20057;-86
2022/09/20 03:55:25;;;;;;;0.20;0.10;;;;;;;;;;4955548;28;20485;-87
2022/09/20 03:57:51;;;;;;;0.20;0.10;;;;;;;;;;4960204;28;20041;-87
2022/09/20 04:00:22;;;;;;;0.20;0.10;;;;;;;;;;4972372;28;20594;-87
2022/09/20 04:03:07;;;;;;;0.20;0.10;;;;;;;;;;4971780;28;20045;-86
2022/09/20 04:05:43;;;;;;;0.20;0.10;;;;;;;;;;4954005;28;20386;-87
2022/09/20 04:08:29;;;;;;;0.20;0.00;;;;;;;;;;4956264;28;20038;-87
2022/09/20 04:11:04;;;;;;;0.30;0.17;;;;;;;;;;4953888;28;20034;-85
2022/09/20 04:13:34;;;;;;;0.20;0.10;;;;;;;;;;4970777;28;20045;-87
2022/09/20 04:16:09;;;;;;;0.20;0.10;;;;;;;;;;4970807;28;20054;-87
2022/09/20 04:18:51;;;;;;;0.20;0.10;;;;;;;;;;4973750;28;20042;-86
2022/09/20 04:21:24;;;;;;;0.20;0.10;;;;;;;;;;4971869;28;20491;-86
2022/09/20 04:23:55;;;;;;;0.20;0.10;;;;;;;;;;4969635;28;20038;-87
2022/09/20 04:26:25;;;;;;;0.20;0.10;;;;;;;;;;4955840;28;20417;-87
2022/09/20 04:28:54;;;;;;;0.20;0.10;;;;;;;;;;4957476;28;20121;-86
2022/09/20 04:31:40;;;;;;;0.20;0.10;;;;;;;;;;4968578;28;20066;-86
2022/09/20 04:34:11;;;;;;;0.20;0.10;;;;;;;;;;4974481;28;20027;-85
2022/09/20 04:36:56;;;;;;;0.20;0.10;;;;;;;;;;4972875;28;20038;-88
2022/09/20 04:39:41;;;;;;;0.20;0.10;;;;;;;;;;4963606;28;20073;-86
2022/09/20 04:42:28;;;;;;;0.20;0.10;;;;;;;;;;4972618;28;20043;-86
2022/09/20 04:45:15;;;;;;;0.20;0.10;;;;;;;;;;4972891;28;20038;-87
2022/09/20 04:47:50;;;;;;;0.20;0.10;;;;;;;;;;4974255;28;20027;-84
2022/09/20 04:50:42;;;;;;;0.20;0.10;;;;;;;;;;4966083;28;20109;-86
2022/09/20 04:53:27;;;;;;;0.20;0.10;;;;;;;;;;4967263;28;20133;-87
2022/09/20 04:55:53;;;;;;;0.20;0.10;;;;;;;;;;4962608;28;20046;-87
2022/09/20 04:58:37;;;;;;;0.20;0.10;;;;;;;;;;4946732;28;20089;-87
2022/09/20 05:01:16;;;;;;;0.20;0.10;;;;;;;;;;4973817;28;20128;-87
2022/09/20 05:04:00;;;;;;;0.20;0.10;;;;;;;;;;4949389;28;20077;-87
2022/09/20 05:06:28;;;;;;;0.20;0.10;;;;;;;;;;4949751;28;20100;-87
2022/09/20 05:09:13;;;;;;;0.20;0.10;;;;;;;;;;4970471;28;20073;-87
2022/09/20 05:11:45;;;;;;;0.20;0.10;;;;;;;;;;4955779;28;20052;-86
2022/09/20 05:14:30;;;;;;;0.20;0.10;;;;;;;;;;4965443;28;20125;-87
2022/09/20 05:17:09;;;;;;;0.20;0.10;;;;;;;;;;4988387;28;20120;-87
2022/09/20 05:19:35;;;;;;;0.20;0.00;;;;;;;;;;4962695;28;20087;-88
2022/09/20 05:22:16;;;;;;;0.20;0.08;;;;;;;;;;4999966;23;20075;-82
2022/09/20 05:25:01;;;;;;;0.20;0.20;;;;;;;;;;4975988;28;20048;-81
2022/09/20 05:27:42;;;;;;;0.35;0.20;;;;;;;;;;4996728;28;20042;-82
2022/09/20 05:30:28;;;;;;;0.20;0.10;;;;;;;;;;4982625;28;20164;-82
2022/09/20 05:33:10;;;;;;;0.20;0.10;;;;;;;;;;4965721;28;20049;-82
2022/09/20 05:35:40;;;;;;;0.20;0.10;;;;;;;;;;4978874;28;20411;-82
2022/09/20 05:38:12;;;;;;;0.20;0.10;;;;;;;;;;4968521;28;20041;-81
2022/09/20 05:40:59;;;;;;;0.20;0.10;;;;;;;;;;4984307;28;20126;-81
2022/09/20 05:43:45;;;;;;;0.20;0.10;;;;;;;;;;4968411;28;20128;-81
2022/09/20 05:46:30;;;;;;;0.20;0.10;;;;;;;;;;4985647;28;20038;-81
2022/09/20 05:49:09;;;;;;;0.20;0.10;;;;;;;;;;4968736;28;20155;-82
2022/09/20 05:51:47;;;;;;;0.20;0.10;;;;;;;;;;4984663;28;20526;-80
2022/09/20 05:54:24;;;;;;;0.20;0.10;;;;;;;;;;4970258;28;20038;-80
2022/09/20 05:57:09;;;;;;;0.20;0.10;;;;;;;;;;4982912;28;20049;-82
2022/09/20 05:59:44;;;;;;;0.20;0.10;;;;;;;;;;4969263;28;20049;-82
2022/09/20 06:02:10;;;;;;;0.20;0.10;;;;;;;;;;4984447;28;20038;-81
2022/09/20 06:04:39;;;;;;;0.20;0.10;;;;;;;;;;4970518;28;20378;-81
2022/09/20 06:07:15;;;;;;;0.20;0.10;;;;;;;;;;4970602;28;20409;-82
2022/09/20 06:10:08;;;;;;;0.20;0.10;;;;;;;;;;4970085;28;20038;-81
2022/09/20 06:12:46;;;;;;;0.20;0.00;;;;;;;;;;4966024;28;20049;-82
2022/09/20 06:15:16;;;;;;;0.20;0.10;;;;;;;;;;4983336;28;20578;-81
2022/09/20 06:17:54;;;;;;;0.20;0.10;;;;;;;;;;4970813;28;20124;-82
2022/09/20 06:20:21;;;;;;;0.20;0.10;;;;;;;;;;4968744;28;20040;-81
2022/09/20 06:22:49;;;;;;;0.20;0.10;;;;;;;;;;4991812;28;20045;-82
2022/09/20 06:25:22;;;;;;;0.20;0.10;;;;;;;;;;4976149;28;20096;-83
2022/09/20 06:27:55;;;;;;;0.20;0.10;;;;;;;;;;4989388;28;20049;-84
2022/09/20 06:30:28;;;;;;;0.20;0.10;;;;;;;;;;4964792;28;20089;-83
2022/09/20 06:33:09;;;;;;;0.20;0.10;;;;;;;;;;4974785;28;20046;-83
2022/09/20 06:35:39;;;;;;;0.20;0.10;;;;;;;;;;4988314;28;20468;-84
2022/09/20 06:43:41;;;;;;;0.20;0.10;;;;;;;;;;4985720;28;20073;-82
2022/09/20 06:46:09;;;;;;;0.20;0.10;;;;;;;;;;4972246;28;20128;-82
2022/09/20 06:48:38;;;;;;;0.20;0.10;;;;;;;;;;4987422;28;20135;-84
2022/09/20 06:51:05;;;;;;;0.20;0.10;;;;;;;;;;4971029;28;20041;-83
2022/09/20 06:53:31;;;;;;;0.20;0.10;;;;;;;;;;4983639;28;20034;-83
2022/09/20 06:55:58;;;;;;;0.20;0.10;;;;;;;;;;4955756;28;20038;-84
2022/09/20 06:58:25;;;;;;;0.20;0.10;;;;;;;;;;4969734;28;20038;-84
2022/09/20 07:00:52;;;;;;;0.20;0.10;;;;;;;;;;4966194;28;20377;-83
2022/09/20 07:03:21;;;;;;;0.20;0.10;;;;;;;;;;4987427;28;20049;-81
2022/09/20 07:05:47;;;;;;;0.20;0.10;;;;;;;;;;4985813;28;20041;-84
2022/09/20 07:08:13;;;;;;;0.20;0.10;;;;;;;;;;4953400;28;20076;-82
2022/09/20 07:10:40;;;;;;;0.20;0.10;;;;;;;;;;4987383;28;20041;-82
2022/09/20 07:13:06;;;;;;;0.20;0.10;;;;;;;;;;4958200;28;20033;-83
2022/09/20 07:15:32;;;;;;;0.20;0.10;;;;;;;;;;4969727;28;20042;-83
2022/09/20 07:17:59;;;;;;;0.20;0.10;;;;;;;;;;4967987;28;20050;-82
2022/09/20 07:20:25;;;;;;;6.03;0.55;;;;;;;;;;5002500;28;20053;-82
2022/09/20 07:22:52;;;;;;;0.20;0.10;;;;;;;;;;4985500;28;20038;-82
2022/09/20 07:25:18;;;;;;;0.20;0.10;;;;;;;;;;4973181;28;20046;-83
2022/09/20 07:27:45;;;;;;;0.20;0.10;;;;;;;;;;4976716;28;20560;-84
2022/09/20 07:30:12;;;;;;;0.20;0.10;;;;;;;;;;4986768;28;20165;-83
2022/09/20 07:32:39;;;;;;;0.20;0.10;;;;;;;;;;4978351;28;20448;-84
2022/09/20 07:35:07;;;;;;;0.20;0.10;;;;;;;;;;4989601;28;20696;-84
2022/09/20 07:37:33;;;;;;;0.20;0.10;;;;;;;;;;4970395;28;20042;-82
2022/09/20 07:39:59;;;;;;;0.20;0.10;;;;;;;;;;4971753;28;20042;-81
2022/09/20 07:42:28;;;;;;;0.20;0.10;;;;;;;;;;4987802;28;20037;-83
2022/09/20 07:44:54;;;;;;;0.20;0.10;;;;;;;;;;4978126;28;20140;-84
2022/09/20 07:47:24;;;;;;;0.20;0.10;;;;;;;;;;4984757;28;20056;-84
2022/09/20 07:49:53;;;;;;;0.20;0.10;;;;;;;;;;4974943;28;20112;-82
2022/09/20 07:52:19;;;;;;;0.20;0.10;;;;;;;;;;4969565;28;20037;-83
2022/09/20 07:54:46;;;;;;;0.20;0.10;;;;;;;;;;4971483;28;20057;-83
2022/09/20 07:57:12;;;;;;;0.20;0.10;;;;;;;;;;4953697;28;20045;-82
2022/09/20 07:59:38;;;;;;;0.20;0.10;;;;;;;;;;4969935;28;20038;-84
2022/09/20 08:02:04;;;;;;;0.20;0.10;;;;;;;;;;4955347;28;20046;-82
2022/09/20 08:04:30;;;;;;;0.20;0.10;;;;;;;;;;4972588;28;20076;-82
2022/09/20 08:06:57;;;;;;;0.20;0.10;;;;;;;;;;4953925;28;20197;-82
2022/09/20 08:09:23;;;;;;;0.20;0.10;;;;;;;;;;4980260;28;20527;-83
2022/09/20 08:11:49;;;;;;;0.20;0.10;;;;;;;;;;4979442;28;20046;-82
2022/09/20 08:14:17;;;;;;;0.20;0.10;;;;;;;;;;4971566;28;20519;-83
2022/09/20 08:16:44;;;;;;;0.20;0.10;;;;;;;;;;4973274;28;20042;-83
2022/09/20 08:19:14;;;;;;;0.20;0.10;;;;;;;;;;4987433;28;20048;-84
2022/09/20 08:21:40;;;;;;;0.20;0.10;;;;;;;;;;4964912;28;20034;-83
2022/09/20 08:24:06;;;;;;;0.20;0.10;;;;;;;;;;4971041;28;20057;-84
2022/09/20 08:26:34;;;;;;;0.20;0.10;;;;;;;;;;4952229;28;20045;-84
2022/09/20 08:29:00;;;;;;;0.20;0.10;;;;;;;;;;4970730;28;20025;-83
2022/09/20 08:31:33;;;;;;;0.20;0.10;;;;;;;;;;4988352;28;20067;-84
2022/09/20 08:34:02;;;;;;;0.20;0.10;;;;;;;;;;4987693;28;20095;-82
2022/09/20 08:36:29;;;;;;;0.20;0.10;;;;;;;;;;4955923;28;20515;-83
2022/09/20 08:39:02;;;;;;;0.20;0.10;;;;;;;;;;4986968;28;20037;-85
2022/09/20 08:41:32;;;;;;;0.20;0.10;;;;;;;;;;4969217;28;20504;-83
2022/09/20 08:44:00;;;;;;;0.20;0.10;;;;;;;;;;4961218;28;20453;-83
2022/09/20 08:46:28;;;;;;;0.20;0.10;;;;;;;;;;4970444;28;20038;-82
2022/09/20 08:48:55;;;;;;;0.20;0.10;;;;;;;;;;4987689;28;20388;-83
2022/09/20 08:51:23;;;;;;;0.20;0.10;;;;;;;;;;4985515;28;20066;-82
2022/09/20 08:53:50;;;;;;;0.20;0.10;;;;;;;;;;4964143;28;20349;-83
2022/09/20 08:56:16;;;;;;;0.20;0.10;;;;;;;;;;4969786;28;20033;-83
2022/09/20 08:58:43;;;;;;;0.20;0.10;;;;;;;;;;4973434;28;20044;-82
2022/09/20 09:01:17;;;;;;;0.20;0.10;;;;;;;;;;4984506;28;20041;-84
2022/09/20 09:03:46;;;;;;;0.20;0.10;;;;;;;;;;4974810;28;20080;-82
2022/09/20 09:06:16;;;;;;;0.20;0.10;;;;;;;;;;5000700;28;20034;-82
2022/09/20 09:08:43;;;;;;;0.20;0.10;;;;;;;;;;4969977;28;20046;-82
2022/09/20 09:11:14;;;;;;;0.20;0.10;;;;;;;;;;4971713;28;20080;-82
2022/09/20 09:13:52;;;;;;;0.20;0.10;;;;;;;;;;4985661;28;20057;-83
2022/09/20 09:16:19;;;;;;;0.20;0.10;;;;;;;;;;4965684;28;20045;-82
2022/09/20 09:18:48;;;;;;;0.20;0.10;;;;;;;;;;4970182;28;20053;-83
2022/09/20 09:21:21;;;;;;;0.20;0.10;;;;;;;;;;4984695;28;20534;-83
2022/09/20 09:23:53;;;;;;;0.20;0.10;;;;;;;;;;4968415;28;21584;-83
2022/09/20 09:26:23;;;;;;;0.20;0.10;;;;;;;;;;4969408;28;20038;-83
2022/09/20 09:29:09;;;;;;;0.20;0.10;;;;;;;;;;4983127;28;20045;-83
2022/09/20 09:31:37;;;;;;;0.20;0.10;;;;;;;;;;4985482;28;20266;-84
2022/09/20 09:34:03;;;;;;;0.20;0.10;;;;;;;;;;4969124;28;20045;-81
2022/09/20 09:36:50;;;;;;;0.20;0.05;;;;;;;;;;4984692;28;20057;-82
2022/09/20 09:39:22;;;;;;;0.20;0.10;;;;;;;;;;4971425;28;20041;-82
2022/09/20 09:41:49;;;;;;;0.20;0.10;;;;;;;;;;4967300;28;20148;-81
2022/09/20 09:44:29;;;;;;;0.20;0.10;;;;;;;;;;4969922;28;20042;-82
2022/09/20 09:46:56;;;;;;;0.20;0.10;;;;;;;;;;4985752;28;20096;-83
2022/09/20 09:49:24;;;;;;;0.20;0.10;;;;;;;;;;4968307;28;20584;-84
2022/09/20 09:52:04;;;;;;;0.20;0.10;;;;;;;;;;4983437;28;20271;-82
2022/09/20 09:54:32;;;;;;;0.20;0.10;;;;;;;;;;4964325;28;20031;-82
2022/09/20 09:57:00;;;;;;;0.20;0.10;;;;;;;;;;5001937;28;20034;-83
2022/09/20 09:59:26;;;;;;;0.20;0.10;;;;;;;;;;4990282;28;20096;-83
2022/09/20 10:02:13;;;;;;;0.20;0.10;;;;;;;;;;4974470;28;20046;-83
2022/09/20 10:04:39;;;;;;;0.20;0.10;;;;;;;;;;4974315;28;20511;-84
2022/09/20 10:07:24;;;;;;;0.20;0.10;;;;;;;;;;4990456;28;20042;-82
2022/09/20 10:09:53;;;;;;;0.20;0.10;;;;;;;;;;4988843;28;20049;-83
2022/09/20 10:12:38;;;;;;;0.20;0.10;;;;;;;;;;4984749;28;20079;-84
2022/09/20 10:15:13;;;;;;;0.20;0.10;;;;;;;;;;4966788;28;20041;-83
2022/09/20 10:17:42;;;;;;;0.20;0.10;;;;;;;;;;4989715;28;20056;-82
2022/09/20 10:20:08;;;;;;;0.20;0.10;;;;;;;;;;4971548;28;20073;-81
2022/09/20 10:22:53;;;;;;;0.20;0.10;;;;;;;;;;4990490;28;20547;-83
2022/09/20 10:25:42;;;;;;;0.20;0.10;;;;;;;;;;4973253;28;20464;-82
2022/09/20 10:28:28;;;;;;;0.20;0.10;;;;;;;;;;4972060;28;20030;-82
2022/09/20 10:31:10;;;;;;;0.20;0.10;;;;;;;;;;5004553;28;20046;-81
2022/09/20 10:33:51;;;;;;;0.20;0.10;;;;;;;;;;4986921;28;20366;-81
2022/09/20 10:36:17;;;;;;;0.20;0.10;;;;;;;;;;4985421;28;20562;-83
2022/09/20 10:38:46;;;;;;;0.20;0.10;;;;;;;;;;4989742;28;20050;-82
2022/09/20 10:44:46;;;;;;;0.20;0.10;;;;;;;;;;4989093;28;20050;-83
2022/09/20 10:47:15;;;;;;;0.20;0.10;;;;;;;;;;4909823;29;20039;-82
2022/09/20 10:50:00;;;;;;;0.20;0.10;;;;;;;;;;4912716;29;20044;-82
2022/09/20 10:52:27;;;;;;;0.20;0.10;;;;;;;;;;4943446;28;20516;-83
2022/09/20 10:55:12;;;;;;;0.20;0.00;;;;;;;;;;4971096;28;20034;-83
2022/09/20 10:57:38;;;;;;;0.20;0.10;;;;;;;;;;4987258;28;20073;-81
2022/09/20 11:00:21;;;;;;;0.20;0.10;;;;;;;;;;4971387;28;20150;-86
2022/09/20 11:03:02;;;;;;;0.20;0.10;;;;;;;;;;4964518;28;20085;-82
2022/09/20 11:05:32;;;;;;;0.20;0.10;;;;;;;;;;4972078;28;20417;-81
2022/09/20 11:08:05;;;;;;;0.20;0.10;;;;;;;;;;4971063;28;20038;-87
2022/09/20 11:10:36;;;;;;;0.20;0.10;;;;;;;;;;4971576;28;20034;-85
2022/09/20 11:13:07;;;;;;;0.20;0.10;;;;;;;;;;4984900;28;20152;-85
2022/09/20 11:15:54;;;;;;;0.20;0.10;;;;;;;;;;4972167;28;20124;-84
2022/09/20 11:18:37;;;;;;;0.20;0.10;;;;;;;;;;4972735;28;20133;-82
2022/09/20 11:21:16;;;;;;;0.20;0.10;;;;;;;;;;4988629;22;20026;-86
2022/09/20 11:23:45;;;;;;;0.20;0.10;;;;;;;;;;4960405;28;20061;-85
2022/09/20 11:26:14;;;;;;;0.20;0.10;;;;;;;;;;4946786;28;20086;-85
2022/09/20 11:28:47;;;;;;;0.20;0.10;;;;;;;;;;4968360;28;20381;-86
2022/09/20 11:31:14;;;;;;;0.20;0.10;;;;;;;;;;4958541;28;20089;-86
2022/09/20 11:33:48;;;;;;;0.20;0.10;;;;;;;;;;4964363;28;20432;-85
2022/09/20 11:36:41;;;;;;;0.20;0.10;;;;;;;;;;4949487;28;20035;-84
2022/09/20 11:39:33;;;;;;;0.20;0.10;;;;;;;;;;4961965;28;20054;-84
2022/09/20 11:42:01;;;;;;;0.20;0.10;;;;;;;;;;4956716;28;20038;-83
2022/09/20 11:44:27;;;;;;;0.20;0.10;;;;;;;;;;4965324;28;20497;-84
2022/09/20 11:47:15;;;;;;;0.20;0.10;;;;;;;;;;4957625;28;20054;-87
2022/09/20 11:49:53;;;;;;;0.20;0.10;;;;;;;;;;4948490;28;20054;-86
2022/09/20 11:52:28;;;;;;;0.20;0.10;;;;;;;;;;4966599;28;20100;-87
2022/09/20 11:55:12;;;;;;;0.20;0.10;;;;;;;;;;4948160;28;20046;-89
2022/09/20 11:57:39;;;;;;;0.20;0.10;;;;;;;;;;4960460;28;20195;-88
2022/09/20 12:00:11;;;;;;;0.20;0.10;;;;;;;;;;4976607;28;20042;-87
2022/09/20 12:02:52;;;;;;;0.20;0.10;;;;;;;;;;4946502;28;20071;-87
2022/09/20 12:05:38;;;;;;;0.20;0.10;;;;;;;;;;4964894;28;20050;-87
2022/09/20 12:08:16;;;;;;;0.20;0.10;;;;;;;;;;4977692;28;20331;-87
2022/09/20 12:10:44;;;;;;;0.20;0.10;;;;;;;;;;4955240;28;20151;-84
2022/09/20 12:13:29;;;;;;;0.20;0.10;;;;;;;;;;4950645;28;20097;-84
2022/09/20 12:16:15;;;;;;;0.20;0.10;;;;;;;;;;4958757;28;20038;-84
2022/09/20 12:18:53;;;;;;;0.20;0.08;;;;;;;;;;4958486;28;20053;-85
2022/09/20 12:21:26;;;;;;;0.20;0.10;;;;;;;;;;4962198;28;20039;-87
2022/09/20 12:23:52;;;;;;;;;;;;;;;;;;4976795;28;20822;-84
2022/09/20 12:26:19;;;;;;;0.20;0.10;;;;;;;;;;4962506;28;19957;-84
2022/09/20 12:28:51;;;;;;;0.20;0.10;;;;;;;;;;4960945;28;20085;-88
2022/09/20 12:31:32;;;;;;;0.20;0.10;;;;;;;;;;4949900;28;20073;-86
2022/09/20 12:34:20;;;;;;;0.20;0.10;;;;;;;;;;4962933;28;20054;-88
2022/09/20 12:37:18;;;;;;;0.20;0.10;;;;;;;;;;4948630;28;20046;-87
2022/09/20 12:40:09;;;;;;;0.20;0.10;;;;;;;;;;4952670;28;20046;-88
2022/09/20 12:43:01;;;;;;;0.20;0.10;;;;;;;;;;4966602;28;20046;-88
2022/09/20 12:45:27;;;;;;;0.20;0.10;;;;;;;;;;4960425;28;20575;-86
2022/09/20 12:47:55;;;;;;;0.20;0.10;;;;;;;;;;4951023;28;20053;-87
2022/09/20 13:00:41;;;;;;;0.20;0.10;;;;;;;;;;4896996;29;20044;-89
2022/09/20 13:03:49;;;;;;;0.20;0.10;;;;;;;;;;4882799;29;20046;-89
2022/09/20 13:06:18;;;;;;;0.20;0.10;;;;;;;;;;4947691;28;20047;-87
2022/09/20 13:09:04;;;;;;;0.20;0.10;;;;;;;;;;4961104;28;20175;-89
2022/09/20 13:12:12;;;;;;;0.20;0.10;;;;;;;;;;4946426;28;20110;-87
2022/09/20 13:15:10;;;;;;;0.20;0.10;;;;;;;;;;4921026;28;20094;-87
2022/09/20 13:17:52;;;;;;;0.20;0.10;;;;;;;;;;4921295;28;20065;-86
2022/09/20 13:20:35;;;;;;;0.20;0.10;;;;;;;;;;4941970;28;20081;-86
2022/09/20 13:23:17;;;;;;;0.20;0.10;;;;;;;;;;4974244;28;20096;-84
2022/09/20 13:25:43;;;;;;;0.20;0.10;;;;;;;;;;4959161;28;20136;-87
2022/09/20 13:28:23;;;;;;;0.20;0.10;;;;;;;;;;4949565;28;20058;-86
2022/09/20 13:31:09;;;;;;;0.20;0.10;;;;;;;;;;4945609;28;20057;-88
2022/09/20 13:33:38;;;;;;;0.20;0.10;;;;;;;;;;4948847;28;20041;-86
2022/09/20 13:36:04;;;;;;;0.20;0.10;;;;;;;;;;4960669;28;20039;-85
2022/09/20 13:38:31;;;;;;;0.20;0.10;;;;;;;;;;4931937;28;20469;-86
2022/09/20 13:41:15;;;;;;;0.20;0.10;;;;;;;;;;4975968;23;20038;-89
2022/09/20 13:43:54;;;;;;;0.20;0.10;;;;;;;;;;4965931;28;20055;-88
2022/09/20 13:49:57;;;;;;;0.20;0.10;;;;;;;;;;4966034;28;20120;-87
2022/09/20 13:52:45;;;;;;;0.20;0.10;;;;;;;;;;4963507;28;20042;-88
2022/09/20 13:55:30;;;;;;;0.20;0.10;;;;;;;;;;4987983;23;21396;-83
2022/09/20 13:57:59;;;;;;;0.20;0.10;;;;;;;;;;4954728;28;20039;-83
2022/09/20 14:00:25;;;;;;;0.20;0.10;;;;;;;;;;4949705;28;20126;-83
2022/09/20 14:02:53;;;;;;;0.20;0.10;;;;;;;;;;4977802;28;20050;-83
2022/09/20 14:05:21;;;;;;;0.20;0.10;;;;;;;;;;4976277;28;20041;-83
2022/09/20 14:07:47;;;;;;;0.20;0.10;;;;;;;;;;4964109;28;20057;-83
2022/09/20 14:10:26;;;;;;;0.20;0.10;;;;;;;;;;4965418;28;20045;-84
2022/09/20 14:12:53;;;;;;;0.20;0.10;;;;;;;;;;4975769;28;20126;-84
2022/09/20 14:15:23;;;;;;;0.20;0.10;;;;;;;;;;4993350;28;20038;-87
2022/09/20 14:18:04;;;;;;;0.20;0.10;;;;;;;;;;4977298;28;20085;-87
2022/09/20 14:21:04;;;;;;;0.20;0.10;;;;;;;;;;4990487;28;20031;-86
2022/09/20 14:23:56;;;;;;;0.20;0.10;;;;;;;;;;4986037;23;20038;-88
2022/09/20 14:27:09;;;;;;;0.20;0.10;;;;;;;;;;4876529;29;20596;-85
2022/09/20 14:29:58;;;;;;;0.20;0.10;;;;;;;;;;4853213;29;20055;-85
2022/09/20 14:32:51;;;;;;;0.20;0.10;;;;;;;;;;4866723;29;20261;-85
2022/09/20 14:35:20;;;;;;;0.20;0.10;;;;;;;;;;4849594;29;20577;-85
2022/09/20 14:37:51;;;;;;;0.20;0.10;;;;;;;;;;4955309;23;20520;-87
2022/09/20 14:40:20;;;;;;;0.20;0.10;;;;;;;;;;4945072;28;20051;-86
2022/09/20 14:42:50;;;;;;;0.20;0.10;;;;;;;;;;4961460;28;20042;-85
2022/09/20 14:45:29;;;;;;;0.20;0.10;;;;;;;;;;4953970;28;20133;-87
2022/09/20 14:47:56;;;;;;;0.20;0.10;;;;;;;;;;4948367;28;20046;-84
2022/09/20 14:50:42;;;;;;;0.20;0.10;;;;;;;;;;4943359;28;20193;-86
2022/09/20 14:53:08;;;;;;;0.20;0.10;;;;;;;;;;4948510;28;20134;-87
2022/09/20 14:55:36;;;;;;;0.20;0.10;;;;;;;;;;4952665;28;20065;-85
2022/09/20 14:58:16;;;;;;;;;;;;;;;;;;;;;
2022/09/20 15:00:53;;;;;;;0.20;0.10;;;;;;;;;;4981666;28;20050;-88
2022/09/20 15:03:39;;;;;;;0.20;0.10;;;;;;;;;;4955252;28;20043;-88
2022/09/20 15:06:15;;;;;;;0.20;0.10;;;;;;;;;;4956414;28;20042;-87
2022/09/20 15:08:44;;;;;;;0.20;0.10;;;;;;;;;;4975673;28;20046;-86
2022/09/20 15:11:22;;;;;;;0.20;0.10;;;;;;;;;;4948171;28;20184;-88
2022/09/20 15:13:48;;;;;;;0.20;0.10;;;;;;;;;;4959549;28;20046;-86
2022/09/20 15:16:29;;;;;;;0.20;0.00;;;;;;;;;;4950669;28;20053;-89
2022/09/20 15:19:14;;;;;;;;;;;;;;;;;;;;;
2022/09/20 15:21:43;;;;;;;0.20;0.10;;;;;;;;;;4956971;28;20058;-86
2022/09/20 15:24:13;;;;;;;0.20;0.10;;;;;;;;;;4949308;28;20049;-84
2022/09/20 15:31:51;;;;;;;0.20;0.10;;;;;;;;;;4624781;26;20054;-88
2022/09/20 15:34:30;;;;;;;0.20;0.10;;;;;;;;;;4945792;28;20054;-87
2022/09/20 15:37:00;;;;;;;;;;;;;;;;;;4981859;23;1258526;-83
2022/09/20 15:39:26;;;;;;;0.20;0.10;;;;;;;;;;5002897;28;19921;-87
2022/09/20 15:41:53;;;;;;;0.20;0.10;;;;;;;;;;5003798;28;20041;-84
2022/09/20 15:44:19;;;;;;;0.20;0.10;;;;;;;;;;4988049;28;20034;-88
2022/09/20 15:46:47;;;;;;;0.20;0.10;;;;;;;;;;4996782;28;20042;-82
2022/09/20 15:49:21;;;;;;;0.20;0.10;;;;;;;;;;5015796;22;20028;-85
2022/09/20 15:51:56;;;;;;;0.20;0.10;;;;;;;;;;4968764;28;20069;-87
2022/09/20 15:54:25;;;;;;;0.20;0.10;;;;;;;;;;4970710;28;20076;-85